CheckWX is a tool to help pilots better visualize weather data.  It is not intended as a substitute for an official pre-flight weather briefing.

04:56:41 UTC

KGZN METAR
Gregory M Simmons Memorial Airport
Cisco, Texas, USA
Current

37 mins ago

KGZN 240420Z AUTO 08006KT 10SM CLR 22/12 A3017 RMK AO2
Observed
Jul-24 @ 04:20 UTC
Wind
  • 080° at 6 KTS
Visibility
10 SM
Flight Rules
VFR
Cloud Levels
  • Clear skies
Temperature
22°C / 72°F
Dewpoint
12°C / 54°F
Humidity
53%
Altimeter
30.17" Hg
Pressure
1021.72 hPa
Previous

57 mins ago

KGZN 240400Z AUTO 07007KT 10SM CLR 23/12 A3017 RMK AO2
Observed
Jul-24 @ 04:00 UTC
Wind
  • 070° at 7 KTS
Visibility
10 SM
Flight Rules
VFR
Cloud Levels
  • Clear skies
Temperature
23°C / 73°F
Dewpoint
12°C / 54°F
Humidity
50%
Altimeter
30.17" Hg
Pressure
1021.72 hPa
Previous

1 hour ago

KGZN 240340Z AUTO 05005KT 10SM CLR 23/12 A3017 RMK AO2
Observed
Jul-24 @ 03:40 UTC
Wind
  • 050° at 5 KTS
Visibility
10 SM
Flight Rules
VFR
Cloud Levels
  • Clear skies
Temperature
23°C / 73°F
Dewpoint
12°C / 54°F
Humidity
50%
Altimeter
30.17" Hg
Pressure
1021.72 hPa